Hlavní strana
METAR-TAF:

METAR-TAF

Letiště :

Wapakoneta, Ohio, Spojené státy americké

zeměpisná šířka: 40-29-37N, zeměpisná délka: 084-17-53W, výška: 278 m

Aktuální stav počasí

Zpráva byla vytvořena před 25 minutami, v 10:15 UTC
Severozápadní vítr 3 kt
Teplota -3°C
Vlhkost vzduchu 93%
Tlak 1024 hPa
Viditelnost: 16.1 km
Jasno

METAR: KAXV 251015Z AUTO 32003KT 10SM CLR M03/M04 A3025 RMK AO2

Čas: 05:40 (10:40 UTC)


TAF: chybějící

Stav a předpovědi počasí z více než 4 000 letišť (zprávy METAR a TAF).

Červené a žluté tečky na mapě představují dostupné meteorologické stanice.

Když kurzor umístíte na tečku, zobrazí se název stanice.

Pak kliknutím zobrazíte stav a předpověď počasí.

Chcete-li změnit mapu, kliknutím na zelené tlačítko se znaménkem +mapu přiblížíte, kliknutím na zelené tlačítko se znaménkem – mapu oddálíte a kliknutím na zelené šipky přejdete na sousední mapy.


METAR-TAF: